Time;durP1;ratioP1;P1;durP2;ratioP2;P2;SDS_P1;SDS_P2;PMS_P1;PMS_P2;Temp;Humidity;BMP_temperature;BMP_pressure;BME280_temperature;BME280_humidity;BME280_pressure;Samples;Min_cycle;Max_cycle;Signal;HPM_P1;HPM_P2
2022/08/28 00:01:14;;;;;;;11.32;6.40;;;12.80;99.90;;;;;;5087098;27;20505;-85
2022/08/28 00:03:41;;;;;;;13.13;6.57;;;12.60;99.90;;;;;;5114341;27;20731;-85
2022/08/28 00:06:10;;;;;;;14.25;6.32;;;12.70;99.90;;;;;;5084398;27;20038;-85
2022/08/28 00:08:36;;;;;;;10.55;5.10;;;12.80;99.90;;;;;;5091157;27;20047;-85
2022/08/28 00:11:03;;;;;;;11.50;5.20;;;12.60;99.90;;;;;;5085015;27;20397;-85
2022/08/28 00:13:30;;;;;;;10.05;5.82;;;12.70;99.90;;;;;;5107896;27;20435;-85
2022/08/28 00:15:59;;;;;;;11.00;5.70;;;12.60;99.90;;;;;;5118499;27;20047;-85
2022/08/28 00:18:27;;;;;;;8.38;5.13;;;12.60;99.90;;;;;;5116856;27;20137;-85
2022/08/28 00:20:53;;;;;;;11.70;5.22;;;12.60;99.90;;;;;;5101460;27;20189;-86
2022/08/28 00:23:20;;;;;;;9.02;5.32;;;12.60;99.90;;;;;;5123608;27;20081;-84
2022/08/28 00:25:46;;;;;;;9.63;5.15;;;12.70;99.90;;;;;;5115838;27;20054;-85
2022/08/28 00:28:13;;;;;;;11.13;5.72;;;12.70;99.90;;;;;;5097835;27;20060;-85
2022/08/28 00:30:47;;;;;;;12.57;7.28;;;12.70;99.90;;;;;;5124461;27;20046;-85
2022/08/28 00:33:31;;;;;;;13.35;7.85;;;12.70;99.90;;;;;;5113390;27;20039;-85
2022/08/28 00:35:59;;;;;;;14.18;6.78;;;12.60;99.90;;;;;;5120406;27;20035;-85
2022/08/28 00:38:29;;;;;;;15.82;8.35;;;12.60;99.90;;;;;;5101502;27;20464;-85
2022/08/28 00:40:59;;;;;;;14.68;8.55;;;12.50;99.90;;;;;;5094893;28;20524;-85
2022/08/28 00:43:42;;;;;;;14.75;7.65;;;12.40;99.90;;;;;;5098201;28;20043;-85
2022/08/28 00:46:18;;;;;;;19.30;9.30;;;12.30;99.90;;;;;;5112529;27;20048;-85
2022/08/28 00:48:44;;;;;;;13.75;7.15;;;12.30;99.90;;;;;;5115255;27;20051;-86
2022/08/28 00:53:57;;;;;;;12.80;7.32;;;12.10;99.90;;;;;;5114845;27;20051;-84
2022/08/28 00:56:23;;;;;;;12.18;7.35;;;12.10;99.90;;;;;;5103513;27;20043;-86
2022/08/28 00:58:50;;;;;;;12.32;7.40;;;12.00;99.90;;;;;;5090888;27;20039;-85
2022/08/28 01:01:17;;;;;;;11.23;6.25;;;12.00;99.90;;;;;;5099555;27;20502;-85
2022/08/28 01:03:44;;;;;;;12.27;8.60;;;12.00;99.90;;;;;;5083657;27;20486;-86
2022/08/28 01:06:13;;;;;;;14.38;8.32;;;12.00;99.90;;;;;;5106582;27;20038;-85
2022/08/28 01:08:41;;;;;;;14.02;9.18;;;11.90;99.90;;;;;;5117782;27;20081;-85
2022/08/28 01:11:08;;;;;;;13.68;7.30;;;11.90;99.90;;;;;;5103087;27;20063;-86
2022/08/28 01:13:37;;;;;;;19.95;9.93;;;11.90;99.90;;;;;;5109937;27;20089;-86
2022/08/28 01:16:05;;;;;;;16.85;10.52;;;11.80;99.90;;;;;;5120188;27;20039;-86
2022/08/28 01:18:32;;;;;;;12.25;8.57;;;11.80;99.90;;;;;;5102384;27;20054;-85
2022/08/28 01:21:20;;;;;;;16.70;9.73;;;11.80;99.90;;;;;;5112078;27;20046;-86
2022/08/28 01:24:07;;;;;;;15.27;9.30;;;11.80;99.90;;;;;;5101184;28;20039;-85
2022/08/28 01:26:33;;;;;;;11.63;8.70;;;11.70;99.90;;;;;;5117777;27;20657;-86
2022/08/28 01:29:00;;;;;;;13.23;8.57;;;11.70;99.90;;;;;;5082766;28;20122;-85
2022/08/28 01:31:28;;;;;;;14.50;8.55;;;11.70;99.90;;;;;;5097597;27;20059;-86
2022/08/28 01:33:58;;;;;;;14.15;9.63;;;11.70;99.90;;;;;;5100253;27;20036;-86
2022/08/28 01:36:24;;;;;;;10.90;7.03;;;11.60;99.90;;;;;;5099073;27;20043;-86
2022/08/28 01:39:04;;;;;;;13.82;7.50;;;11.60;99.90;;;;;;5119119;27;20039;-86
2022/08/28 01:41:30;;;;;;;15.77;7.32;;;11.60;99.90;;;;;;5114193;27;20073;-86
2022/08/28 01:43:56;;;;;;;15.23;8.95;;;11.50;99.90;;;;;;5119107;27;20039;-87
2022/08/28 01:46:24;;;;;;;11.00;7.78;;;11.40;99.90;;;;;;5087789;28;20035;-86
2022/08/28 01:48:56;;;;;;;8.13;5.60;;;11.50;99.90;;;;;;5106909;27;20051;-85
2022/08/28 01:51:22;;;;;;;12.93;7.03;;;11.40;99.90;;;;;;5084459;27;20491;-86
2022/08/28 01:53:48;;;;;;;8.45;5.38;;;11.40;99.90;;;;;;5105088;27;20058;-86
2022/08/28 01:56:15;;;;;;;16.17;8.35;;;11.40;99.90;;;;;;5084658;28;20043;-87
2022/08/28 01:58:42;;;;;;;15.15;7.90;;;11.40;99.90;;;;;;5086842;28;20506;-87
2022/08/28 02:01:13;;;;;;;14.18;8.93;;;11.40;99.90;;;;;;5101780;27;20047;-86
2022/08/28 02:03:41;;;;;;;11.23;7.53;;;11.40;99.90;;;;;;5111995;27;20047;-87
2022/08/28 02:06:08;;;;;;;10.00;6.53;;;11.40;99.90;;;;;;5097705;28;20050;-86
2022/08/28 02:08:35;;;;;;;10.85;6.78;;;11.40;99.90;;;;;;5097915;27;20050;-86
2022/08/28 02:11:07;;;;;;;12.63;7.07;;;11.40;99.90;;;;;;5087857;28;20054;-86
2022/08/28 02:13:35;;;;;;;10.95;6.57;;;11.40;99.90;;;;;;5090376;27;20570;-86
2022/08/28 02:16:03;;;;;;;13.60;8.10;;;11.30;99.90;;;;;;5108346;27;20057;-86
2022/08/28 02:18:28;;;;;;;14.45;7.78;;;11.30;99.90;;;;;;5115569;27;20039;-86
2022/08/28 02:20:54;;;;;;;14.07;8.45;;;11.30;99.90;;;;;;5083983;28;20050;-86
2022/08/28 02:23:20;;;;;;;9.15;6.78;;;11.30;99.90;;;;;;5127420;27;20074;-87
2022/08/28 02:25:46;;;;;;;14.02;7.22;;;11.30;99.90;;;;;;5077092;27;20078;-86
2022/08/28 02:28:12;;;;;;;10.73;6.57;;;11.30;99.90;;;;;;5105823;27;20093;-86
2022/08/28 02:30:39;;;;;;;10.32;5.97;;;11.30;99.90;;;;;;5107486;28;20097;-86
2022/08/28 02:33:05;;;;;;;15.82;7.53;;;11.30;99.90;;;;;;5102990;27;20043;-86
2022/08/28 02:35:31;;;;;;;12.05;7.32;;;11.20;99.90;;;;;;5087466;27;20054;-87
2022/08/28 02:37:57;;;;;;;11.23;7.20;;;11.20;99.90;;;;;;5088547;27;20126;-86
2022/08/28 02:40:24;;;;;;;11.73;7.28;;;11.20;99.90;;;;;;5093827;28;20044;-86
2022/08/28 02:42:50;;;;;;;14.60;8.32;;;11.10;99.90;;;;;;5103098;27;20060;-87
2022/08/28 02:45:18;;;;;;;13.35;7.38;;;11.10;99.90;;;;;;5115573;27;20382;-86
2022/08/28 02:47:50;;;;;;;15.43;7.93;;;11.10;99.90;;;;;;5082002;27;20586;-86
2022/08/28 02:50:18;;;;;;;11.95;6.53;;;11.00;99.90;;;;;;5101750;28;20059;-87
2022/08/28 02:52:50;;;;;;;10.15;7.20;;;11.00;99.90;;;;;;5097118;28;20135;-86
2022/08/28 02:55:17;;;;;;;15.40;9.48;;;11.00;99.90;;;;;;5098657;28;20070;-86
2022/08/28 02:57:45;;;;;;;11.50;6.30;;;11.00;99.90;;;;;;5099983;28;20043;-86
2022/08/28 03:00:14;;;;;;;16.33;9.43;;;10.90;99.90;;;;;;5099817;27;20634;-86
2022/08/28 03:02:41;;;;;;;10.85;6.93;;;10.90;99.90;;;;;;5138527;27;20051;-87
2022/08/28 03:05:09;;;;;;;14.90;8.88;;;10.90;99.90;;;;;;5091424;27;20046;-86
2022/08/28 03:07:35;;;;;;;8.95;5.72;;;10.90;99.90;;;;;;5121077;27;20091;-87
2022/08/28 03:10:06;;;;;;;10.15;6.47;;;10.80;99.90;;;;;;5110492;27;20031;-86
2022/08/28 03:12:32;;;;;;;13.90;7.95;;;10.90;99.90;;;;;;5094774;28;20425;-86
2022/08/28 03:14:58;;;;;;;20.45;10.40;;;10.80;99.90;;;;;;5120147;27;20561;-86
2022/08/28 03:17:24;;;;;;;16.13;8.90;;;10.90;99.90;;;;;;5091528;28;20039;-87
2022/08/28 03:19:50;;;;;;;12.10;7.47;;;10.80;99.90;;;;;;5104165;27;20114;-85
2022/08/28 03:25:10;;;;;;;13.80;7.43;;;10.80;99.90;;;;;;5065637;28;20044;-86
2022/08/28 03:27:37;;;;;;;10.40;6.50;;;10.80;99.90;;;;;;5100523;27;20051;-87
2022/08/28 03:30:06;;;;;;;14.30;8.45;;;10.80;99.90;;;;;;5094793;27;20591;-86
2022/08/28 03:32:32;;;;;;;12.50;7.03;;;10.80;99.90;;;;;;5078216;27;20081;-87
2022/08/28 03:34:58;;;;;;;12.57;6.55;;;10.80;99.90;;;;;;5086331;27;20076;-87
2022/08/28 03:37:27;;;;;;;13.30;8.20;;;10.80;99.90;;;;;;5111289;27;20039;-87
2022/08/28 03:39:53;;;;;;;8.63;5.95;;;10.80;99.90;;;;;;5093656;27;20154;-87
2022/08/28 03:42:19;;;;;;;13.48;8.38;;;10.80;99.90;;;;;;5104462;27;20051;-87
2022/08/28 03:44:47;;;;;;;15.05;8.20;;;10.70;99.90;;;;;;5125586;27;20039;-86
2022/08/28 03:47:14;;;;;;;15.52;7.95;;;10.80;99.90;;;;;;5096329;27;20088;-87
2022/08/28 03:49:40;;;;;;;16.10;9.00;;;10.70;99.90;;;;;;5112954;27;20055;-87
2022/08/28 03:52:08;;;;;;;8.32;5.95;;;10.70;99.90;;;;;;5102369;27;20529;-87
2022/08/28 03:54:34;;;;;;;16.15;7.63;;;10.70;99.90;;;;;;5091022;27;20057;-86
2022/08/28 03:57:00;;;;;;;19.17;8.45;;;10.70;99.90;;;;;;5107495;27;20034;-87
2022/08/28 03:59:27;;;;;;;13.52;6.88;;;10.60;99.90;;;;;;5107551;27;20497;-88
2022/08/28 04:01:53;;;;;;;8.60;5.00;;;10.60;99.90;;;;;;5112050;27;20500;-87
2022/08/28 04:04:20;;;;;;;13.32;7.68;;;10.50;99.90;;;;;;5103801;27;20043;-87
2022/08/28 04:06:45;;;;;;;10.68;6.38;;;10.60;99.90;;;;;;5090904;27;20544;-87
2022/08/28 04:09:11;;;;;;;11.07;6.80;;;10.50;99.90;;;;;;5088142;27;20118;-87
2022/08/28 04:11:41;;;;;;;7.32;4.63;;;10.50;99.90;;;;;;5097739;27;20126;-86
2022/08/28 04:14:07;;;;;;;7.47;4.40;;;10.50;99.90;;;;;;5107700;27;20509;-87
2022/08/28 04:16:34;;;;;;;9.90;5.55;;;10.50;99.90;;;;;;5100470;27;20038;-88
2022/08/28 04:18:59;;;;;;;10.32;5.93;;;10.50;99.90;;;;;;5093228;27;20105;-87
2022/08/28 04:21:26;;;;;;;10.45;4.80;;;10.40;99.90;;;;;;5082013;27;20222;-87
2022/08/28 04:23:53;;;;;;;13.55;7.05;;;10.40;99.90;;;;;;5097800;27;20038;-87
2022/08/28 04:26:24;;;;;;;15.85;9.13;;;10.40;99.90;;;;;;5107672;27;20582;-87
2022/08/28 04:28:51;;;;;;;10.38;5.40;;;10.40;99.90;;;;;;5093758;27;20129;-86
2022/08/28 04:31:18;;;;;;;7.03;4.63;;;10.40;99.90;;;;;;5138859;27;20514;-87
2022/08/28 04:33:44;;;;;;;9.35;5.72;;;10.40;99.90;;;;;;5080730;27;20040;-87
2022/08/28 04:36:14;;;;;;;10.85;6.30;;;10.40;99.90;;;;;;5118084;27;20039;-87
2022/08/28 04:38:41;;;;;;;12.05;7.03;;;10.40;99.90;;;;;;5115162;27;20184;-88
2022/08/28 04:41:10;;;;;;;15.40;9.55;;;10.40;99.90;;;;;;5096012;27;20501;-87
2022/08/28 04:43:39;;;;;;;12.68;7.85;;;10.30;99.90;;;;;;5102754;27;20043;-87
2022/08/28 04:46:08;;;;;;;10.60;5.93;;;10.40;99.90;;;;;;5091236;27;20524;-88
2022/08/28 04:48:36;;;;;;;10.25;6.10;;;10.40;99.90;;;;;;5106330;27;20594;-87
2022/08/28 04:51:04;;;;;;;10.20;6.45;;;10.40;99.90;;;;;;5106039;28;20039;-88
2022/08/28 04:53:31;;;;;;;9.13;5.35;;;10.40;99.90;;;;;;5117924;27;20049;-87
2022/08/28 04:55:59;;;;;;;12.90;7.35;;;10.40;99.90;;;;;;5095698;27;20446;-88
2022/08/28 04:58:26;;;;;;;12.52;6.78;;;10.30;99.90;;;;;;5125330;27;20043;-86
2022/08/28 05:20:14;;;;;;;;;;;;;;;;;;;;;
2022/08/28 05:27:52;;;;;;;;;;;;;;;;;;;;;
2022/08/28 05:34:45;;;;;;;11.77;6.05;;;10.60;99.90;;;;;;4841175;29;20053;-87
2022/08/28 05:37:11;;;;;;;10.80;5.47;;;10.60;99.90;;;;;;4965094;27;20045;-87
2022/08/28 05:39:37;;;;;;;9.15;5.65;;;10.80;99.90;;;;;;5123293;27;20529;-87
2022/08/28 05:42:04;;;;;;;9.55;4.82;;;10.80;99.90;;;;;;5110113;27;20123;-87
2022/08/28 05:44:30;;;;;;;8.57;5.75;;;10.90;99.90;;;;;;5111133;27;20038;-87
2022/08/28 05:46:56;;;;;;;9.85;5.47;;;11.00;99.90;;;;;;5106600;27;20047;-86
2022/08/28 05:49:22;;;;;;;9.48;5.88;;;11.10;99.90;;;;;;5094966;27;20038;-86
2022/08/28 05:51:48;;;;;;;9.10;5.72;;;11.20;99.90;;;;;;5101954;27;20100;-87
2022/08/28 05:54:17;;;;;;;10.80;4.93;;;11.30;99.90;;;;;;5097344;27;20724;-87
2022/08/28 05:56:45;;;;;;;10.55;6.25;;;11.40;99.90;;;;;;5105400;27;20050;-87
2022/08/28 05:59:12;;;;;;;9.73;5.60;;;11.40;99.90;;;;;;5100572;27;20084;-85
2022/08/28 06:01:41;;;;;;;11.95;6.05;;;11.50;99.90;;;;;;5110819;27;20046;-86
2022/08/28 06:04:26;;;;;;;10.27;5.18;;;11.60;99.90;;;;;;5101694;27;20035;-85
2022/08/28 06:06:53;;;;;;;10.77;6.00;;;11.70;99.90;;;;;;5116749;27;20035;-85
2022/08/28 06:09:21;;;;;;;11.68;6.07;;;11.70;99.90;;;;;;5091154;27;20073;-85
2022/08/28 06:11:54;;;;;;;10.00;5.45;;;11.80;99.90;;;;;;5099680;27;20039;-85
2022/08/28 06:14:20;;;;;;;13.70;5.40;;;11.90;99.90;;;;;;5120613;27;20091;-85
2022/08/28 06:16:50;;;;;;;13.90;7.10;;;11.90;99.90;;;;;;5104631;27;20518;-85
2022/08/28 06:19:18;;;;;;;8.65;5.53;;;12.00;99.90;;;;;;5116548;27;20047;-85
2022/08/28 06:21:45;;;;;;;11.88;5.72;;;12.10;99.90;;;;;;5126848;27;20552;-85
2022/08/28 06:24:12;;;;;;;8.90;4.80;;;12.10;99.90;;;;;;5082531;27;20034;-86
2022/08/28 06:26:38;;;;;;;12.45;5.28;;;12.20;99.90;;;;;;5144923;27;20046;-85
2022/08/28 06:29:07;;;;;;;10.73;6.10;;;12.30;99.90;;;;;;5084498;27;20038;-85
2022/08/28 06:31:33;;;;;;;10.30;4.32;;;12.40;99.90;;;;;;5119096;27;20530;-84
2022/08/28 06:34:00;;;;;;;12.93;4.50;;;12.50;99.90;;;;;;5101633;27;20171;-83
2022/08/28 06:36:29;;;;;;;10.05;4.28;;;12.70;99.90;;;;;;5126960;27;20059;-86
2022/08/28 06:38:57;;;;;;;10.40;4.10;;;12.80;99.90;;;;;;5106724;27;20130;-85
2022/08/28 06:41:23;;;;;;;11.50;4.40;;;13.00;99.90;;;;;;5098232;27;20043;-85
2022/08/28 06:43:49;;;;;;;8.85;3.65;;;13.20;99.90;;;;;;5107338;27;20035;-84
2022/08/28 06:46:16;;;;;;;9.48;3.67;;;13.40;99.90;;;;;;5112260;27;20047;-83
2022/08/28 06:48:41;;;;;;;10.90;4.43;;;13.50;99.90;;;;;;5106631;27;20040;-84
2022/08/28 06:51:09;;;;;;;9.00;3.10;;;13.60;99.90;;;;;;5086240;27;20043;-84
2022/08/28 06:53:37;;;;;;;13.25;3.50;;;13.70;99.90;;;;;;5100404;27;20129;-85
2022/08/28 06:56:10;;;;;;;11.23;3.28;;;13.80;99.90;;;;;;5101658;27;20065;-83
2022/08/28 06:58:41;;;;;;;10.00;3.38;;;13.90;99.90;;;;;;5097967;27;20051;-84
2022/08/28 07:01:17;;;;;;;9.20;3.30;;;14.00;99.90;;;;;;5085356;27;20462;-85
2022/08/28 07:03:44;;;;;;;9.20;3.38;;;14.10;99.90;;;;;;5117937;27;20053;-83
2022/08/28 07:06:12;;;;;;;7.68;2.90;;;14.20;99.90;;;;;;5117650;27;20031;-82
2022/08/28 07:08:39;;;;;;;9.90;3.45;;;14.30;99.90;;;;;;5098539;27;20039;-84
2022/08/28 07:11:17;;;;;;;11.68;3.78;;;14.40;99.90;;;;;;5126615;27;20126;-83
2022/08/28 07:13:44;;;;;;;10.52;2.90;;;14.50;99.90;;;;;;5100065;27;20059;-84
2022/08/28 07:16:12;;;;;;;8.07;3.05;;;14.70;99.90;;;;;;5116730;27;20039;-84
2022/08/28 07:18:39;;;;;;;9.35;2.90;;;14.80;99.90;;;;;;5098834;27;20113;-83
2022/08/28 07:21:08;;;;;;;10.35;2.90;;;14.90;99.90;;;;;;5101799;27;20393;-84
2022/08/28 07:23:38;;;;;;;10.57;2.80;;;15.10;99.90;;;;;;5120258;27;20069;-82
2022/08/28 07:26:05;;;;;;;;;;;15.30;99.90;;;;;;5125134;27;20563;-83
2022/08/28 07:28:32;;;;;;;7.60;2.55;;;15.50;99.90;;;;;;5100387;27;20339;-82
2022/08/28 07:31:12;;;;;;;6.53;2.20;;;15.70;99.90;;;;;;5109344;27;20401;-82
2022/08/28 07:33:39;;;;;;;6.70;2.28;;;16.00;99.90;;;;;;5103110;27;20118;-83
2022/08/28 07:36:11;;;;;;;5.75;1.90;;;16.30;99.90;;;;;;5100520;27;20101;-81
2022/08/28 07:38:37;;;;;;;7.63;2.15;;;16.50;99.90;;;;;;5097161;27;20050;-79
2022/08/28 07:41:11;;;;;;;5.97;1.90;;;16.70;99.90;;;;;;5117994;27;20043;-83
2022/08/28 07:46:21;;;;;;;7.72;1.92;;;17.10;99.90;;;;;;5095565;27;20041;-82
2022/08/28 07:48:47;;;;;;;6.90;2.28;;;17.30;99.90;;;;;;5102595;27;20035;-80
2022/08/28 07:51:13;;;;;;;8.35;1.92;;;17.40;99.90;;;;;;5089071;27;20047;-83
2022/08/28 07:53:38;;;;;;;7.40;2.08;;;17.60;99.90;;;;;;5117020;27;20039;-81
2022/08/28 07:56:10;;;;;;;7.03;1.70;;;17.70;99.90;;;;;;5083452;27;20054;-80
2022/08/28 07:58:37;;;;;;;6.50;1.60;;;17.90;99.90;;;;;;5103547;27;20047;-80
2022/08/28 08:01:03;;;;;;;8.63;2.15;;;18.10;99.90;;;;;;5101220;27;20047;-82
2022/08/28 08:03:30;;;;;;;5.70;1.73;;;18.30;99.90;;;;;;5098295;27;20054;-82
2022/08/28 08:06:02;;;;;;;9.15;2.50;;;18.40;99.90;;;;;;5107026;27;20124;-81
2022/08/28 08:08:30;;;;;;;7.78;2.28;;;18.50;99.90;;;;;;5095254;27;20110;-79
2022/08/28 08:11:04;;;;;;;7.15;1.65;;;18.70;99.90;;;;;;5101613;27;20579;-79
2022/08/28 08:13:32;;;;;;;6.35;1.75;;;18.70;99.90;;;;;;5101880;27;20163;-79
2022/08/28 08:16:11;;;;;;;5.45;1.77;;;18.80;99.90;;;;;;5101646;27;20047;-83
2022/08/28 08:18:38;;;;;;;7.13;1.85;;;18.90;99.90;;;;;;5114621;27;20050;-77
2022/08/28 08:21:11;;;;;;;6.63;1.77;;;19.00;99.90;;;;;;5120175;27;20507;-81
2022/08/28 08:23:37;;;;;;;7.90;1.90;;;19.10;99.90;;;;;;5103939;27;20050;-82
2022/08/28 08:26:10;;;;;;;7.28;2.15;;;19.20;99.90;;;;;;5119192;27;20143;-83
2022/08/28 08:28:38;;;;;;;6.68;1.63;;;19.30;99.90;;;;;;5118976;27;20481;-81
2022/08/28 08:34:48;;;;;;;7.93;2.10;;;19.60;99.90;;;;;;5100591;27;20138;-77
2022/08/28 08:37:14;;;;;;;5.97;2.25;;;19.50;99.90;;;;;;5103952;27;20618;-81
2022/08/28 08:39:41;;;;;;;7.80;2.15;;;19.30;99.90;;;;;;5101740;27;20035;-79
2022/08/28 08:42:24;;;;;;;8.25;1.98;;;19.20;99.90;;;;;;5097799;27;20893;-81
2022/08/28 08:44:52;;;;;;;5.82;1.85;;;19.10;99.90;;;;;;5103172;27;20054;-81
2022/08/28 08:47:42;;;;;;;5.43;1.88;;;19.00;99.90;;;;;;5103886;27;20996;-84
2022/08/28 08:50:29;;;;;;;5.97;1.65;;;19.20;99.90;;;;;;5112936;27;20045;-81
2022/08/28 08:53:24;;;;;;;6.18;1.83;;;19.40;99.90;;;;;;5113069;27;20038;-85
2022/08/28 08:55:52;;;;;;;5.72;1.58;;;19.70;99.60;;;;;;5105246;27;20481;-81
2022/08/28 08:58:39;;;;;;;9.80;1.95;;;19.80;99.90;;;;;;5090464;27;20703;-79
2022/08/28 09:01:27;;;;;;;6.85;1.73;;;20.00;99.70;;;;;;5106909;27;20535;-83
2022/08/28 09:04:02;;;;;;;6.75;1.98;;;20.10;97.40;;;;;;5111657;27;20039;-79
2022/08/28 09:06:47;;;;;;;9.50;2.33;;;20.00;96.90;;;;;;5098873;27;20044;-79
2022/08/28 09:09:35;;;;;;;6.38;1.88;;;19.80;97.90;;;;;;5118803;27;20127;-81
2022/08/28 09:12:14;;;;;;;4.82;2.50;;;19.80;98.70;;;;;;5123343;27;20131;-83
2022/08/28 09:14:57;;;;;;;6.30;1.88;;;19.90;97.50;;;;;;5111217;27;20075;-81
2022/08/28 09:17:34;;;;;;;5.28;1.60;;;20.10;96.90;;;;;;5122801;27;20072;-81
2022/08/28 09:20:00;;;;;;;6.72;1.85;;;20.30;96.30;;;;;;5127292;27;20500;-83
2022/08/28 09:22:26;;;;;;;5.95;1.90;;;20.40;95.40;;;;;;5080615;27;20054;-79
2022/08/28 09:24:52;;;;;;;7.50;1.85;;;20.60;94.10;;;;;;5118794;27;20572;-82
2022/08/28 09:27:28;;;;;;;9.25;2.53;;;20.70;92.40;;;;;;5094799;27;20046;-81
2022/08/28 09:29:59;;;;;;;6.50;2.75;;;20.50;94.80;;;;;;5121603;27;20095;-82
2022/08/28 09:32:29;;;;;;;5.10;1.70;;;20.30;95.00;;;;;;5106655;27;20047;-82
2022/08/28 09:35:21;;;;;;;7.47;1.92;;;20.10;95.40;;;;;;5107158;27;20561;-81
2022/08/28 09:37:47;;;;;;;4.95;1.60;;;19.90;95.50;;;;;;5110344;27;20043;-78
2022/08/28 09:43:25;;;;;;;7.57;2.15;;;19.70;94.00;;;;;;5109803;27;20512;-81
2022/08/28 09:43:26;;;;;;;5.65;1.80;;;19.70;93.30;;;;;;5123265;27;20509;-81
2022/08/28 09:46:03;;;;;;;5.85;2.00;;;19.90;92.70;;;;;;5114533;27;20089;-79
2022/08/28 09:48:43;;;;;;;6.20;1.80;;;19.90;92.80;;;;;;5113315;27;20042;-79
2022/08/28 09:51:11;;;;;;;6.95;2.10;;;19.90;92.80;;;;;;5122909;27;20039;-80
2022/08/28 09:53:55;;;;;;;4.25;1.90;;;19.80;94.50;;;;;;5096993;27;20120;-82
2022/08/28 09:56:29;;;;;;;7.60;2.03;;;19.70;95.30;;;;;;5110083;27;20039;-81
2022/08/28 09:58:58;;;;;;;6.60;2.15;;;19.60;95.40;;;;;;5103681;27;20074;-81
2022/08/28 10:01:48;;;;;;;6.97;1.77;;;19.60;96.80;;;;;;5101726;27;20039;-84
2022/08/28 10:04:48;;;;;;;4.93;1.60;;;19.80;95.00;;;;;;5119393;27;20118;-79
2022/08/28 10:07:17;;;;;;;5.80;1.83;;;19.90;94.10;;;;;;5095951;27;20046;-81
2022/08/28 10:09:53;;;;;;;7.85;2.55;;;19.80;94.30;;;;;;5118791;27;20133;-81
2022/08/28 10:12:47;;;;;;;5.63;2.05;;;19.80;94.30;;;;;;5101373;27;20043;-81
2022/08/28 10:15:23;;;;;;;5.60;1.70;;;19.80;94.60;;;;;;5119314;27;20047;-80
2022/08/28 10:17:55;;;;;;;4.25;1.98;;;19.90;93.60;;;;;;5115205;27;20116;-82
2022/08/28 10:20:39;;;;;;;5.72;1.83;;;20.10;93.50;;;;;;5108041;27;20134;-80
2022/08/28 10:23:38;;;;;;;5.05;1.67;;;20.30;95.60;;;;;;5101984;27;20043;-82
2022/08/28 10:26:27;;;;;;;7.33;1.90;;;20.50;93.60;;;;;;5108304;27;20092;-82
2022/08/28 10:28:59;;;;;;;5.20;2.05;;;20.30;91.70;;;;;;5124544;27;20084;-80
2022/08/28 10:31:41;;;;;;;6.65;2.00;;;20.10;92.30;;;;;;5094117;27;20553;-81
2022/08/28 10:34:25;;;;;;;6.13;1.85;;;20.00;93.60;;;;;;5107082;27;20086;-81
2022/08/28 10:37:04;;;;;;;8.55;2.03;;;20.20;96.10;;;;;;5114788;27;20035;-82
2022/08/28 10:39:33;;;;;;;8.68;1.98;;;20.60;96.80;;;;;;5121791;27;20049;-81
2022/08/28 10:42:03;;;;;;;6.00;2.17;;;20.90;90.90;;;;;;5122223;27;20158;-79
2022/08/28 10:44:33;;;;;;;6.40;2.03;;;21.20;90.20;;;;;;5101048;27;20508;-81
2022/08/28 10:47:00;;;;;;;4.72;2.00;;;21.30;90.70;;;;;;5109092;27;20038;-79
2022/08/28 10:49:36;;;;;;;5.55;1.95;;;21.30;85.90;;;;;;5115135;27;20115;-82
2022/08/28 10:52:09;;;;;;;4.80;2.05;;;21.10;87.50;;;;;;5099804;27;20565;-79
2022/08/28 10:54:41;;;;;;;6.65;1.88;;;20.80;87.00;;;;;;5107297;27;20074;-80
2022/08/28 10:57:29;;;;;;;5.40;1.98;;;20.60;88.40;;;;;;5093882;27;20046;-78
2022/08/28 10:59:56;;;;;;;6.78;1.88;;;20.40;90.20;;;;;;5106441;27;20926;-79
2022/08/28 11:02:24;;;;;;;6.38;2.05;;;20.60;90.00;;;;;;5117401;27;20031;-78
2022/08/28 11:04:53;;;;;;;5.53;1.95;;;20.80;88.80;;;;;;5098246;27;20053;-81
2022/08/28 11:07:39;;;;;;;6.28;1.95;;;20.90;87.80;;;;;;5116449;27;20501;-83
2022/08/28 11:10:37;;;;;;;6.70;2.10;;;20.80;89.10;;;;;;5115110;27;20043;-82
2022/08/28 11:13:05;;;;;;;5.60;2.03;;;20.70;85.50;;;;;;5094221;27;20047;-79
2022/08/28 11:15:32;;;;;;;5.07;2.03;;;20.50;86.30;;;;;;5102590;27;20046;-81
2022/08/28 11:18:12;;;;;;;6.15;2.30;;;20.40;89.20;;;;;;5115694;27;20035;-80
2022/08/28 11:20:42;;;;;;;6.20;2.05;;;20.30;91.10;;;;;;5102507;27;20058;-79
2022/08/28 11:23:28;;;;;;;4.35;1.80;;;20.40;90.60;;;;;;5117526;27;20063;-81
2022/08/28 11:26:06;;;;;;;5.80;2.50;;;20.20;92.50;;;;;;5109115;27;20495;-81
2022/08/28 11:28:34;;;;;;;6.50;2.25;;;20.30;95.90;;;;;;5135078;27;20091;-82
2022/08/28 11:31:03;;;;;;;5.45;2.08;;;20.60;94.90;;;;;;5118469;27;20039;-81
2022/08/28 11:33:41;;;;;;;4.47;1.83;;;20.80;90.60;;;;;;5125559;27;20042;-79
2022/08/28 11:36:31;;;;;;;5.57;1.90;;;20.80;88.80;;;;;;5122983;27;20501;-79
2022/08/28 11:39:12;;;;;;;6.55;1.92;;;20.70;89.00;;;;;;5120831;27;20064;-80
2022/08/28 11:42:24;;;;;;;6.50;2.20;;;20.50;87.90;;;;;;5123891;27;20052;-82
2022/08/28 11:44:50;;;;;;;8.20;2.22;;;20.60;88.70;;;;;;5119154;27;20046;-81
2022/08/28 11:47:44;;;;;;;5.88;2.20;;;20.60;90.00;;;;;;5106765;27;20435;-81
2022/08/28 11:50:19;;;;;;;6.20;1.88;;;20.70;91.70;;;;;;5117269;27;20497;-81
2022/08/28 11:53:21;;;;;;;5.18;2.10;;;20.80;85.30;;;;;;5122901;27;20035;-82
2022/08/28 11:56:12;;;;;;;5.47;2.08;;;21.00;83.10;;;;;;5125969;27;20050;-81
2022/08/28 11:58:53;;;;;;;3.97;1.73;;;21.10;82.80;;;;;;5117804;27;20047;-83
2022/08/28 12:01:36;;;;;;;4.75;1.70;;;21.20;79.60;;;;;;5106917;27;20096;-81
2022/08/28 12:04:08;;;;;;;5.95;1.90;;;21.40;80.30;;;;;;5115227;27;20949;-81
2022/08/28 12:07:12;;;;;;;5.60;1.98;;;21.50;77.10;;;;;;5119694;27;20050;-82
2022/08/28 12:09:42;;;;;;;5.72;1.50;;;21.40;76.50;;;;;;5114218;27;20047;-81
2022/08/28 12:12:23;;;;;;;6.95;2.63;;;21.30;76.10;;;;;;5130195;27;20039;-79
2022/08/28 12:15:00;;;;;;;7.80;2.15;;;21.30;76.10;;;;;;5095509;27;20059;-78
2022/08/28 12:17:40;;;;;;;4.95;1.80;;;21.30;74.10;;;;;;5112372;27;20146;-79
2022/08/28 12:20:14;;;;;;;7.35;2.15;;;21.30;76.00;;;;;;5113326;27;20364;-83
2022/08/28 12:22:49;;;;;;;7.18;2.25;;;21.40;74.70;;;;;;5114493;27;20659;-81
2022/08/28 12:25:31;;;;;;;5.10;2.00;;;21.70;75.30;;;;;;5094884;27;20389;-82
2022/08/28 12:28:01;;;;;;;5.65;2.00;;;21.80;72.30;;;;;;5105291;27;20047;-81
2022/08/28 12:30:38;;;;;;;5.60;1.77;;;21.60;73.90;;;;;;5103637;27;20066;-79
2022/08/28 12:33:40;;;;;;;6.18;1.92;;;21.50;76.40;;;;;;5105138;27;20122;-80
2022/08/28 12:36:13;;;;;;;4.45;1.88;;;21.60;76.20;;;;;;5104836;28;20308;-82
2022/08/28 12:38:39;;;;;;;3.88;1.77;;;21.80;71.60;;;;;;5110899;27;20043;-81
2022/08/28 12:41:15;;;;;;;3.30;1.42;;;21.80;71.80;;;;;;5100442;27;20058;-81
2022/08/28 12:43:46;;;;;;;4.78;1.73;;;21.70;71.30;;;;;;5099820;27;20139;-82
2022/08/28 12:46:22;;;;;;;4.82;1.60;;;21.50;72.70;;;;;;5120314;27;20138;-80
2022/08/28 12:48:58;;;;;;;4.60;1.50;;;21.30;74.40;;;;;;5118917;27;20100;-82
2022/08/28 12:51:26;;;;;;;4.63;1.40;;;21.10;77.30;;;;;;5106073;27;20127;-80
2022/08/28 12:53:58;;;;;;;4.22;1.65;;;21.30;74.40;;;;;;5116519;27;20039;-80
2022/08/28 12:56:28;;;;;;;4.85;1.70;;;21.50;73.60;;;;;;5122563;27;20042;-82
2022/08/28 12:59:24;;;;;;;4.22;1.80;;;21.70;74.90;;;;;;5106268;27;20143;-78
2022/08/28 13:01:51;;;;;;;5.55;1.88;;;21.70;72.40;;;;;;5127858;27;20038;-79
2022/08/28 13:04:34;;;;;;;4.50;1.58;;;21.60;72.90;;;;;;5126688;27;20117;-81
2022/08/28 13:07:16;;;;;;;4.60;1.60;;;21.50;74.00;;;;;;5125930;27;20043;-84
2022/08/28 13:09:49;;;;;;;4.80;1.85;;;21.60;74.40;;;;;;5121827;27;20122;-79
2022/08/28 13:12:38;;;;;;;6.35;1.92;;;21.70;70.00;;;;;;5113591;27;20118;-79
2022/08/28 13:15:08;;;;;;;6.43;1.98;;;21.60;70.20;;;;;;5112716;27;20039;-80
2022/08/28 13:17:49;;;;;;;6.05;2.03;;;21.50;71.00;;;;;;5079778;27;20047;-82
2022/08/28 13:20:29;;;;;;;7.18;1.73;;;21.30;73.10;;;;;;5108584;27;20108;-79
2022/08/28 13:22:56;;;;;;;3.53;1.40;;;21.10;74.90;;;;;;5106205;27;20073;-80
2022/08/28 13:25:25;;;;;;;5.18;1.60;;;20.90;76.20;;;;;;5083134;27;20065;-82
2022/08/28 13:28:00;;;;;;;5.35;1.55;;;21.00;77.30;;;;;;5116894;27;20043;-79
2022/08/28 13:30:33;;;;;;;5.20;1.83;;;21.20;79.30;;;;;;5111288;27;20039;-82
2022/08/28 13:33:14;;;;;;;4.85;1.65;;;21.50;76.10;;;;;;5106163;27;20122;-79
2022/08/28 13:35:40;;;;;;;3.85;1.33;;;21.50;74.00;;;;;;5121017;27;20103;-79
2022/08/28 13:38:15;;;;;;;6.63;1.50;;;21.40;75.20;;;;;;5115547;27;20051;-81
2022/08/28 13:40:56;;;;;;;3.25;1.38;;;21.30;75.90;;;;;;5118625;27;20031;-83
2022/08/28 13:43:23;;;;;;;4.18;1.48;;;21.20;76.70;;;;;;5116899;27;20043;-79
2022/08/28 13:45:50;;;;;;;5.07;1.38;;;21.20;76.10;;;;;;5101306;27;20042;-78
2022/08/28 13:48:42;;;;;;;5.97;1.98;;;21.10;77.50;;;;;;5123562;27;20026;-82
2022/08/28 13:51:10;;;;;;;5.60;1.60;;;21.00;79.20;;;;;;5126717;27;20051;-81